Orbital elements of EUTELSAT W3B
| Launched | 27 October 2010 |
| Flight ended | – |
| Launch site | Europe's Spaceport, Kourou, French Guiana |
| Owner | European Telecommunications Satellite Organization (EUTELSAT) |
| NORAD ID | 37206 |
| Date fetched |
Epoch osculation |
Inc. [°] |
Ecc. | RA asc node [hr] |
Arg Peri. [°] |
Mean anom [°] |
Mean motion [rev/day] |
Abs. mag |
| Date fetched |
Epoch osculation |
Inc. [°] |
Ecc. | RA asc node [hr] |
Arg Peri. [°] |
Mean anom [°] |
Mean motion [rev/day] |
Abs. mag |
| 2026 May 08 17:57 | 2026 May 05 03:15:44 | 2.4139 | 0.69039 | 4.3501 | 26.8896 | 356.1377 | 2.78468 | 5.243 |
| 2026 May 07 17:58 | 2026 May 05 03:15:44 | 2.4139 | 0.69039 | 4.3501 | 26.8896 | 356.1377 | 2.78468 | 5.243 |
| 2026 May 06 17:57 | 2026 May 05 03:15:44 | 2.4139 | 0.69039 | 4.3501 | 26.8896 | 356.1377 | 2.78468 | 5.243 |
| 2026 May 05 17:57 | 2026 May 05 03:15:44 | 2.4139 | 0.69039 | 4.3501 | 26.8896 | 356.1377 | 2.78468 | 5.243 |
| 2026 May 04 17:57 | 2026 Apr 30 11:13:04 | 2.4015 | 0.69037 | 4.5023 | 22.1315 | 356.1377 | 2.78468 | 5.243 |
| 2026 May 03 17:57 | 2026 Apr 30 11:13:04 | 2.4015 | 0.69037 | 4.5023 | 22.1315 | 356.1377 | 2.78468 | 5.243 |
| 2026 May 02 17:57 | 2026 Apr 30 11:13:04 | 2.4015 | 0.69037 | 4.5023 | 22.1315 | 356.1377 | 2.78468 | 5.243 |
| 2026 May 01 17:56 | 2026 Apr 30 11:13:04 | 2.4015 | 0.69037 | 4.5023 | 22.1315 | 356.1377 | 2.78468 | 5.243 |
| 2026 Apr 30 17:56 | 2026 Apr 30 11:13:04 | 2.4015 | 0.69037 | 4.5023 | 22.1315 | 356.1377 | 2.78468 | 5.243 |
| 2026 Apr 29 17:57 | 2026 Apr 24 08:38:53 | 2.3844 | 0.69038 | 4.7049 | 15.8639 | 356.1377 | 2.78468 | 5.243 |
| 2026 Apr 28 17:56 | 2026 Apr 24 08:38:53 | 2.3844 | 0.69038 | 4.7049 | 15.8639 | 356.1377 | 2.78468 | 5.243 |
| 2026 Apr 27 17:58 | 2026 Apr 24 08:38:53 | 2.3844 | 0.69038 | 4.7049 | 15.8639 | 356.1377 | 2.78468 | 5.243 |
| 2026 Apr 26 17:58 | 2026 Apr 24 08:38:53 | 2.3844 | 0.69038 | 4.7049 | 15.8639 | 356.1377 | 2.78468 | 5.243 |
| 2026 Apr 25 17:58 | 2026 Apr 24 08:38:53 | 2.3844 | 0.69038 | 4.7049 | 15.8639 | 356.1377 | 2.78468 | 5.243 |
| 2026 Apr 24 17:59 | 2026 Apr 24 08:38:53 | 2.3844 | 0.69038 | 4.7049 | 15.8639 | 356.1377 | 2.78468 | 5.243 |
| 2026 Apr 23 17:57 | 2026 Apr 19 07:54:04 | 2.3692 | 0.69037 | 4.8735 | 10.6706 | 356.1377 | 2.78468 | 5.243 |
| 2026 Apr 22 17:57 | 2026 Apr 19 07:54:04 | 2.3692 | 0.69037 | 4.8735 | 10.6706 | 356.1377 | 2.78468 | 5.243 |
| 2026 Apr 21 17:57 | 2026 Apr 19 07:54:04 | 2.3692 | 0.69037 | 4.8735 | 10.6706 | 356.1377 | 2.78468 | 5.243 |
| 2026 Apr 20 17:57 | 2026 Apr 19 07:54:04 | 2.3692 | 0.69037 | 4.8735 | 10.6706 | 356.1377 | 2.78468 | 5.243 |
| 2026 Apr 19 17:58 | 2026 Apr 19 07:54:04 | 2.3692 | 0.69037 | 4.8735 | 10.6706 | 356.1377 | 2.78468 | 5.243 |
| 2026 Apr 18 17:56 | 2026 Apr 12 20:36:45 | 2.3478 | 0.69030 | 5.0920 | 3.9835 | 356.1377 | 2.78468 | 5.243 |
| 2026 Apr 16 17:57 | 2026 Apr 12 20:36:45 | 2.3478 | 0.69030 | 5.0920 | 3.9835 | 356.1377 | 2.78468 | 5.243 |
| 2026 Apr 14 17:57 | 2026 Apr 12 20:36:45 | 2.3478 | 0.69030 | 5.0920 | 3.9835 | 356.1377 | 2.78468 | 5.243 |
| 2026 Apr 13 17:57 | 2026 Apr 12 20:36:45 | 2.3478 | 0.69030 | 5.0920 | 3.9835 | 356.1377 | 2.78468 | 5.243 |
| 2026 Apr 12 17:57 | 2026 Apr 08 04:25:52 | 2.3325 | 0.69030 | 5.2527 | 359.1105 | 356.1377 | 2.78468 | 5.243 |
| 2026 Apr 11 17:57 | 2026 Apr 08 04:25:52 | 2.3325 | 0.69030 | 5.2527 | 359.1105 | 356.1377 | 2.78468 | 5.243 |